sensor_id;sensor_type;location;lat;lon;timestamp;temperature;humidity
64499;SHT31;51087;55.718;21.122;2023-06-19T00:01:26;15.84;99.99
64499;SHT31;51087;55.718;21.122;2023-06-19T00:03:52;15.77;99.99
64499;SHT31;51087;55.718;21.122;2023-06-19T00:06:17;15.77;99.99
64499;SHT31;51087;55.718;21.122;2023-06-19T00:08:42;15.77;99.99
64499;SHT31;51087;55.718;21.122;2023-06-19T00:11:08;15.79;99.99
64499;SHT31;51087;55.718;21.122;2023-06-19T00:13:33;15.79;99.99
64499;SHT31;51087;55.718;21.122;2023-06-19T00:15:59;15.76;99.99
64499;SHT31;51087;55.718;21.122;2023-06-19T00:18:26;15.71;99.99
64499;SHT31;51087;55.718;21.122;2023-06-19T00:20:51;15.74;99.99
64499;SHT31;51087;55.718;21.122;2023-06-19T00:23:19;15.71;99.99
64499;SHT31;51087;55.718;21.122;2023-06-19T00:25:45;15.71;99.99
64499;SHT31;51087;55.718;21.122;2023-06-19T00:28:10;15.70;99.99
64499;SHT31;51087;55.718;21.122;2023-06-19T00:30:39;15.69;99.99
64499;SHT31;51087;55.718;21.122;2023-06-19T00:33:05;15.67;99.99
64499;SHT31;51087;55.718;21.122;2023-06-19T00:35:30;15.67;99.99
64499;SHT31;51087;55.718;21.122;2023-06-19T00:37:56;15.66;99.99
64499;SHT31;51087;55.718;21.122;2023-06-19T00:40:27;15.67;99.99
64499;SHT31;51087;55.718;21.122;2023-06-19T00:42:53;15.69;99.99
64499;SHT31;51087;55.718;21.122;2023-06-19T00:45:19;15.71;99.99
64499;SHT31;51087;55.718;21.122;2023-06-19T00:47:44;15.70;99.99
64499;SHT31;51087;55.718;21.122;2023-06-19T00:50:10;15.70;99.99
64499;SHT31;51087;55.718;21.122;2023-06-19T00:52:36;15.67;99.99
64499;SHT31;51087;55.718;21.122;2023-06-19T00:55:03;15.67;99.99
64499;SHT31;51087;55.718;21.122;2023-06-19T00:57:30;15.67;99.99
64499;SHT31;51087;55.718;21.122;2023-06-19T00:59:57;15.64;99.99
64499;SHT31;51087;55.718;21.122;2023-06-19T01:02:23;15.70;99.99
64499;SHT31;51087;55.718;21.122;2023-06-19T01:04:52;15.66;99.99
64499;SHT31;51087;55.718;21.122;2023-06-19T01:07:37;15.67;99.99
64499;SHT31;51087;55.718;21.122;2023-06-19T01:10:09;15.71;99.99
64499;SHT31;51087;55.718;21.122;2023-06-19T01:12:44;15.70;99.99
64499;SHT31;51087;55.718;21.122;2023-06-19T01:15:15;15.67;99.99
64499;SHT31;51087;55.718;21.122;2023-06-19T01:17:41;15.69;99.99
64499;SHT31;51087;55.718;21.122;2023-06-19T01:20:07;15.69;99.99
64499;SHT31;51087;55.718;21.122;2023-06-19T01:22:36;15.71;99.99
64499;SHT31;51087;55.718;21.122;2023-06-19T01:25:02;15.74;99.99
64499;SHT31;51087;55.718;21.122;2023-06-19T01:27:29;15.76;99.99
64499;SHT31;51087;55.718;21.122;2023-06-19T01:29:56;15.73;99.99
64499;SHT31;51087;55.718;21.122;2023-06-19T01:35:02;15.76;99.99
64499;SHT31;51087;55.718;21.122;2023-06-19T01:37:29;15.70;99.99
64499;SHT31;51087;55.718;21.122;2023-06-19T01:39:59;15.73;99.99
64499;SHT31;51087;55.718;21.122;2023-06-19T01:42:26;15.70;99.99
64499;SHT31;51087;55.718;21.122;2023-06-19T01:44:52;15.70;99.99
64499;SHT31;51087;55.718;21.122;2023-06-19T01:47:18;15.66;99.99
64499;SHT31;51087;55.718;21.122;2023-06-19T01:49:49;15.63;99.99
64499;SHT31;51087;55.718;21.122;2023-06-19T01:52:14;15.56;99.99
64499;SHT31;51087;55.718;21.122;2023-06-19T01:54:40;15.54;99.99
64499;SHT31;51087;55.718;21.122;2023-06-19T01:57:05;15.57;99.99
64499;SHT31;51087;55.718;21.122;2023-06-19T01:59:31;15.62;99.99
64499;SHT31;51087;55.718;21.122;2023-06-19T02:01:57;15.59;99.99
64499;SHT31;51087;55.718;21.122;2023-06-19T02:04:22;15.54;99.99
64499;SHT31;51087;55.718;21.122;2023-06-19T02:06:47;15.54;99.99
64499;SHT31;51087;55.718;21.122;2023-06-19T02:09:13;15.57;99.99
64499;SHT31;51087;55.718;21.122;2023-06-19T02:11:38;15.56;99.99
64499;SHT31;51087;55.718;21.122;2023-06-19T02:14:04;15.56;99.99
64499;SHT31;51087;55.718;21.122;2023-06-19T02:16:29;15.56;99.99
64499;SHT31;51087;55.718;21.122;2023-06-19T02:18:55;15.54;99.99
64499;SHT31;51087;55.718;21.122;2023-06-19T02:21:22;15.43;99.99
64499;SHT31;51087;55.718;21.122;2023-06-19T02:23:47;15.50;99.99
64499;SHT31;51087;55.718;21.122;2023-06-19T02:26:12;15.49;99.99
64499;SHT31;51087;55.718;21.122;2023-06-19T02:28:38;15.39;99.99
64499;SHT31;51087;55.718;21.122;2023-06-19T02:31:03;15.38;99.99
64499;SHT31;51087;55.718;21.122;2023-06-19T02:33:29;15.31;99.99
64499;SHT31;51087;55.718;21.122;2023-06-19T02:35:55;15.33;99.99
64499;SHT31;51087;55.718;21.122;2023-06-19T02:38:27;15.35;99.99
64499;SHT31;51087;55.718;21.122;2023-06-19T02:40:55;15.38;99.99
64499;SHT31;51087;55.718;21.122;2023-06-19T02:43:22;15.36;99.99
64499;SHT31;51087;55.718;21.122;2023-06-19T02:45:48;15.36;99.99
64499;SHT31;51087;55.718;21.122;2023-06-19T02:48:13;15.33;99.99
64499;SHT31;51087;55.718;21.122;2023-06-19T02:50:38;15.33;99.99
64499;SHT31;51087;55.718;21.122;2023-06-19T02:53:04;15.31;99.88
64499;SHT31;51087;55.718;21.122;2023-06-19T02:55:29;15.28;99.39
64499;SHT31;51087;55.718;21.122;2023-06-19T02:57:55;15.26;98.97
64499;SHT31;51087;55.718;21.122;2023-06-19T03:00:20;15.28;98.80
64499;SHT31;51087;55.718;21.122;2023-06-19T03:02:46;15.26;99.06
64499;SHT31;51087;55.718;21.122;2023-06-19T03:05:13;15.19;98.37
64499;SHT31;51087;55.718;21.122;2023-06-19T03:07:41;15.15;97.78
64499;SHT31;51087;55.718;21.122;2023-06-19T03:10:07;15.14;99.28
64499;SHT31;51087;55.718;21.122;2023-06-19T03:12:33;15.11;99.99
64499;SHT31;51087;55.718;21.122;2023-06-19T03:14:58;15.04;99.99
64499;SHT31;51087;55.718;21.122;2023-06-19T03:17:23;15.01;99.99
64499;SHT31;51087;55.718;21.122;2023-06-19T03:19:49;14.98;99.99
64499;SHT31;51087;55.718;21.122;2023-06-19T03:22:14;14.99;99.99
64499;SHT31;51087;55.718;21.122;2023-06-19T03:24:40;15.04;99.99
64499;SHT31;51087;55.718;21.122;2023-06-19T03:27:05;15.04;99.99
64499;SHT31;51087;55.718;21.122;2023-06-19T03:29:31;15.05;99.99
64499;SHT31;51087;55.718;21.122;2023-06-19T03:31:56;15.04;99.99
64499;SHT31;51087;55.718;21.122;2023-06-19T03:34:22;15.06;99.99
64499;SHT31;51087;55.718;21.122;2023-06-19T03:36:47;15.09;99.99
64499;SHT31;51087;55.718;21.122;2023-06-19T03:39:13;15.12;99.99
64499;SHT31;51087;55.718;21.122;2023-06-19T03:41:38;15.16;99.99
64499;SHT31;51087;55.718;21.122;2023-06-19T03:44:04;15.21;99.99
64499;SHT31;51087;55.718;21.122;2023-06-19T03:46:29;15.24;99.99
64499;SHT31;51087;55.718;21.122;2023-06-19T03:48:54;15.25;99.99
64499;SHT31;51087;55.718;21.122;2023-06-19T03:51:20;15.25;99.99
64499;SHT31;51087;55.718;21.122;2023-06-19T03:53:45;15.29;99.99
64499;SHT31;51087;55.718;21.122;2023-06-19T03:56:11;15.32;99.99
64499;SHT31;51087;55.718;21.122;2023-06-19T03:58:36;15.32;99.99
64499;SHT31;51087;55.718;21.122;2023-06-19T04:01:01;15.14;99.99
64499;SHT31;51087;55.718;21.122;2023-06-19T04:03:28;15.12;99.99
64499;SHT31;51087;55.718;21.122;2023-06-19T04:05:53;15.11;99.99
64499;SHT31;51087;55.718;21.122;2023-06-19T04:08:18;15.08;99.99
64499;SHT31;51087;55.718;21.122;2023-06-19T04:10:44;15.04;99.99
64499;SHT31;51087;55.718;21.122;2023-06-19T04:13:09;15.02;99.99
64499;SHT31;51087;55.718;21.122;2023-06-19T04:15:35;15.01;99.99
64499;SHT31;51087;55.718;21.122;2023-06-19T04:18:01;14.99;99.99
64499;SHT31;51087;55.718;21.122;2023-06-19T04:20:26;14.97;99.99
64499;SHT31;51087;55.718;21.122;2023-06-19T04:22:52;14.92;99.99
64499;SHT31;51087;55.718;21.122;2023-06-19T04:25:18;14.89;99.99
64499;SHT31;51087;55.718;21.122;2023-06-19T04:27:43;14.89;99.99
64499;SHT31;51087;55.718;21.122;2023-06-19T04:30:10;14.91;99.99
64499;SHT31;51087;55.718;21.122;2023-06-19T04:32:36;14.95;99.99
64499;SHT31;51087;55.718;21.122;2023-06-19T04:35:07;14.98;99.99
64499;SHT31;51087;55.718;21.122;2023-06-19T04:37:32;15.04;99.99
64499;SHT31;51087;55.718;21.122;2023-06-19T04:39:58;15.09;99.99
64499;SHT31;51087;55.718;21.122;2023-06-19T04:42:24;15.12;99.99
64499;SHT31;51087;55.718;21.122;2023-06-19T04:44:50;15.16;99.99
64499;SHT31;51087;55.718;21.122;2023-06-19T04:47:18;15.19;99.99
64499;SHT31;51087;55.718;21.122;2023-06-19T04:49:43;15.21;99.99
64499;SHT31;51087;55.718;21.122;2023-06-19T04:52:09;15.26;99.99
64499;SHT31;51087;55.718;21.122;2023-06-19T04:54:34;15.32;99.99
64499;SHT31;51087;55.718;21.122;2023-06-19T04:57:00;15.36;99.99
64499;SHT31;51087;55.718;21.122;2023-06-19T04:59:26;15.39;99.99
64499;SHT31;51087;55.718;21.122;2023-06-19T05:01:52;15.44;99.99
64499;SHT31;51087;55.718;21.122;2023-06-19T05:04:22;15.49;99.99
64499;SHT31;51087;55.718;21.122;2023-06-19T05:06:50;15.46;99.99
64499;SHT31;51087;55.718;21.122;2023-06-19T05:09:16;15.52;99.99
64499;SHT31;51087;55.718;21.122;2023-06-19T05:11:42;15.52;99.99
64499;SHT31;51087;55.718;21.122;2023-06-19T05:14:07;15.46;99.99
64499;SHT31;51087;55.718;21.122;2023-06-19T05:16:35;15.46;99.99
64499;SHT31;51087;55.718;21.122;2023-06-19T05:19:01;15.44;99.99
64499;SHT31;51087;55.718;21.122;2023-06-19T05:21:26;15.38;99.99
64499;SHT31;51087;55.718;21.122;2023-06-19T05:23:51;15.46;99.99
64499;SHT31;51087;55.718;21.122;2023-06-19T05:26:18;15.54;99.99
64499;SHT31;51087;55.718;21.122;2023-06-19T05:28:44;15.60;99.99
64499;SHT31;51087;55.718;21.122;2023-06-19T05:31:09;15.64;99.99
64499;SHT31;51087;55.718;21.122;2023-06-19T05:33:35;15.54;99.99
64499;SHT31;51087;55.718;21.122;2023-06-19T05:36:00;15.62;99.99
64499;SHT31;51087;55.718;21.122;2023-06-19T05:38:26;15.67;99.99
64499;SHT31;51087;55.718;21.122;2023-06-19T05:40:53;15.74;99.99
64499;SHT31;51087;55.718;21.122;2023-06-19T05:43:20;15.77;99.99
64499;SHT31;51087;55.718;21.122;2023-06-19T05:45:45;15.73;99.99
64499;SHT31;51087;55.718;21.122;2023-06-19T05:48:11;15.76;99.99
64499;SHT31;51087;55.718;21.122;2023-06-19T05:50:36;15.77;99.99
64499;SHT31;51087;55.718;21.122;2023-06-19T05:53:02;15.76;99.99
64499;SHT31;51087;55.718;21.122;2023-06-19T05:55:27;15.76;99.99
64499;SHT31;51087;55.718;21.122;2023-06-19T05:57:53;15.71;99.99
64499;SHT31;51087;55.718;21.122;2023-06-19T06:00:19;15.71;99.99
64499;SHT31;51087;55.718;21.122;2023-06-19T06:02:44;15.79;99.99
64499;SHT31;51087;55.718;21.122;2023-06-19T06:05:10;15.73;99.99
64499;SHT31;51087;55.718;21.122;2023-06-19T06:07:35;15.83;99.99
64499;SHT31;51087;55.718;21.122;2023-06-19T06:10:03;16.00;99.99
64499;SHT31;51087;55.718;21.122;2023-06-19T06:12:29;16.00;99.99
64499;SHT31;51087;55.718;21.122;2023-06-19T06:14:54;16.02;99.99
64499;SHT31;51087;55.718;21.122;2023-06-19T06:17:19;16.01;99.99
64499;SHT31;51087;55.718;21.122;2023-06-19T06:19:45;16.07;99.99
64499;SHT31;51087;55.718;21.122;2023-06-19T06:22:10;16.04;99.99
64499;SHT31;51087;55.718;21.122;2023-06-19T06:24:36;16.00;99.99
64499;SHT31;51087;55.718;21.122;2023-06-19T06:27:01;16.00;99.99
64499;SHT31;51087;55.718;21.122;2023-06-19T06:29:26;15.97;99.99
64499;SHT31;51087;55.718;21.122;2023-06-19T06:32:05;15.90;99.99
64499;SHT31;51087;55.718;21.122;2023-06-19T06:34:35;15.90;99.99
64499;SHT31;51087;55.718;21.122;2023-06-19T06:37:00;15.98;99.99
64499;SHT31;51087;55.718;21.122;2023-06-19T06:39:26;16.02;99.99
64499;SHT31;51087;55.718;21.122;2023-06-19T06:41:52;16.11;99.99
64499;SHT31;51087;55.718;21.122;2023-06-19T06:44:17;16.17;99.71
64499;SHT31;51087;55.718;21.122;2023-06-19T06:46:43;16.18;99.57
64499;SHT31;51087;55.718;21.122;2023-06-19T06:49:08;16.11;99.31
64499;SHT31;51087;55.718;21.122;2023-06-19T06:51:33;16.12;99.99
64499;SHT31;51087;55.718;21.122;2023-06-19T06:53:59;16.21;99.53
64499;SHT31;51087;55.718;21.122;2023-06-19T06:56:24;16.24;99.25
64499;SHT31;51087;55.718;21.122;2023-06-19T06:58:50;16.21;99.11
64499;SHT31;51087;55.718;21.122;2023-06-19T07:01:15;16.19;98.89
64499;SHT31;51087;55.718;21.122;2023-06-19T07:03:41;16.29;98.88
64499;SHT31;51087;55.718;21.122;2023-06-19T07:06:06;16.30;99.26
64499;SHT31;51087;55.718;21.122;2023-06-19T07:08:32;16.33;99.38
64499;SHT31;51087;55.718;21.122;2023-06-19T07:10:57;16.25;98.48
64499;SHT31;51087;55.718;21.122;2023-06-19T07:13:23;16.24;98.69
64499;SHT31;51087;55.718;21.122;2023-06-19T07:15:48;16.24;98.71
64499;SHT31;51087;55.718;21.122;2023-06-19T07:18:14;16.30;99.11
64499;SHT31;51087;55.718;21.122;2023-06-19T07:20:47;16.05;99.16
64499;SHT31;51087;55.718;21.122;2023-06-19T07:23:12;15.83;99.99
64499;SHT31;51087;55.718;21.122;2023-06-19T07:25:39;15.81;99.99
64499;SHT31;51087;55.718;21.122;2023-06-19T07:28:04;15.84;99.99
64499;SHT31;51087;55.718;21.122;2023-06-19T07:30:30;15.87;99.99
64499;SHT31;51087;55.718;21.122;2023-06-19T07:32:56;15.91;99.99
64499;SHT31;51087;55.718;21.122;2023-06-19T07:35:21;15.74;99.99
64499;SHT31;51087;55.718;21.122;2023-06-19T07:37:47;15.81;99.99
64499;SHT31;51087;55.718;21.122;2023-06-19T07:40:12;15.81;99.99
64499;SHT31;51087;55.718;21.122;2023-06-19T07:42:38;15.93;99.99
64499;SHT31;51087;55.718;21.122;2023-06-19T07:45:03;15.90;99.99
64499;SHT31;51087;55.718;21.122;2023-06-19T07:47:29;15.87;99.99
64499;SHT31;51087;55.718;21.122;2023-06-19T07:49:54;15.94;99.99
64499;SHT31;51087;55.718;21.122;2023-06-19T07:52:20;16.00;99.99
64499;SHT31;51087;55.718;21.122;2023-06-19T07:54:54;16.14;99.99
64499;SHT31;51087;55.718;21.122;2023-06-19T07:57:22;16.14;99.99
64499;SHT31;51087;55.718;21.122;2023-06-19T07:59:48;16.25;99.99
64499;SHT31;51087;55.718;21.122;2023-06-19T08:02:14;16.21;99.99
64499;SHT31;51087;55.718;21.122;2023-06-19T08:04:39;16.26;99.99
64499;SHT31;51087;55.718;21.122;2023-06-19T08:07:05;16.25;99.86
64499;SHT31;51087;55.718;21.122;2023-06-19T08:09:31;16.30;99.88
64499;SHT31;51087;55.718;21.122;2023-06-19T08:11:57;16.35;99.97
64499;SHT31;51087;55.718;21.122;2023-06-19T08:14:22;16.38;99.79
64499;SHT31;51087;55.718;21.122;2023-06-19T08:16:47;16.46;99.98
64499;SHT31;51087;55.718;21.122;2023-06-19T08:19:13;16.36;99.75
64499;SHT31;51087;55.718;21.122;2023-06-19T08:21:38;16.41;99.78
64499;SHT31;51087;55.718;21.122;2023-06-19T08:24:04;16.51;99.84
64499;SHT31;51087;55.718;21.122;2023-06-19T08:26:29;16.59;99.88
64499;SHT31;51087;55.718;21.122;2023-06-19T08:28:55;16.62;99.99
64499;SHT31;51087;55.718;21.122;2023-06-19T08:31:20;16.70;99.47
64499;SHT31;51087;55.718;21.122;2023-06-19T08:33:52;16.73;99.46
64499;SHT31;51087;55.718;21.122;2023-06-19T08:36:18;16.72;99.34
64499;SHT31;51087;55.718;21.122;2023-06-19T08:38:44;16.80;99.42
64499;SHT31;51087;55.718;21.122;2023-06-19T08:41:09;16.79;99.18
64499;SHT31;51087;55.718;21.122;2023-06-19T08:43:35;16.81;99.08
64499;SHT31;51087;55.718;21.122;2023-06-19T08:46:09;16.84;99.25
64499;SHT31;51087;55.718;21.122;2023-06-19T08:48:35;16.91;99.28
64499;SHT31;51087;55.718;21.122;2023-06-19T08:51:02;16.95;99.06
64499;SHT31;51087;55.718;21.122;2023-06-19T08:53:29;16.97;98.50
64499;SHT31;51087;55.718;21.122;2023-06-19T08:55:54;17.01;98.67
64499;SHT31;51087;55.718;21.122;2023-06-19T08:58:23;17.12;98.46
64499;SHT31;51087;55.718;21.122;2023-06-19T09:00:49;17.21;98.47
64499;SHT31;51087;55.718;21.122;2023-06-19T09:03:20;17.31;97.85
64499;SHT31;51087;55.718;21.122;2023-06-19T09:05:47;17.32;97.75
64499;SHT31;51087;55.718;21.122;2023-06-19T09:08:16;17.45;98.14
64499;SHT31;51087;55.718;21.122;2023-06-19T09:10:41;17.65;97.92
64499;SHT31;51087;55.718;21.122;2023-06-19T09:13:07;17.86;97.19
64499;SHT31;51087;55.718;21.122;2023-06-19T09:15:39;18.08;97.09
64499;SHT31;51087;55.718;21.122;2023-06-19T09:18:09;18.15;95.85
64499;SHT31;51087;55.718;21.122;2023-06-19T09:20:40;18.31;95.99
64499;SHT31;51087;55.718;21.122;2023-06-19T09:23:12;18.45;95.50
64499;SHT31;51087;55.718;21.122;2023-06-19T09:28:21;18.75;95.01
64499;SHT31;51087;55.718;21.122;2023-06-19T09:31:00;18.93;94.12
64499;SHT31;51087;55.718;21.122;2023-06-19T09:33:30;19.00;94.04
64499;SHT31;51087;55.718;21.122;2023-06-19T09:35:57;18.93;93.87
64499;SHT31;51087;55.718;21.122;2023-06-19T09:38:28;19.02;93.53
64499;SHT31;51087;55.718;21.122;2023-06-19T09:40:55;19.14;93.09
64499;SHT31;51087;55.718;21.122;2023-06-19T09:43:25;19.21;92.38
64499;SHT31;51087;55.718;21.122;2023-06-19T09:45:55;19.20;92.69
64499;SHT31;51087;55.718;21.122;2023-06-19T09:48:27;19.43;92.47
64499;SHT31;51087;55.718;21.122;2023-06-19T09:50:59;19.50;92.27
64499;SHT31;51087;55.718;21.122;2023-06-19T09:53:26;19.58;92.10
64499;SHT31;51087;55.718;21.122;2023-06-19T09:55:51;19.90;91.62
64499;SHT31;51087;55.718;21.122;2023-06-19T09:58:20;20.28;89.48
64499;SHT31;51087;55.718;21.122;2023-06-19T10:00:47;20.41;88.50
64499;SHT31;51087;55.718;21.122;2023-06-19T10:03:16;20.45;88.09
64499;SHT31;51087;55.718;21.122;2023-06-19T10:05:42;20.30;88.95
64499;SHT31;51087;55.718;21.122;2023-06-19T10:08:08;20.54;88.60
64499;SHT31;51087;55.718;21.122;2023-06-19T10:10:34;20.67;87.43
64499;SHT31;51087;55.718;21.122;2023-06-19T10:13:12;20.45;87.87
64499;SHT31;51087;55.718;21.122;2023-06-19T10:15:41;20.31;88.79
64499;SHT31;51087;55.718;21.122;2023-06-19T10:18:16;20.09;89.31
64499;SHT31;51087;55.718;21.122;2023-06-19T10:20:41;19.94;89.95
64499;SHT31;51087;55.718;21.122;2023-06-19T10:23:10;19.82;90.64
64499;SHT31;51087;55.718;21.122;2023-06-19T10:25:40;19.63;91.10
64499;SHT31;51087;55.718;21.122;2023-06-19T10:30:43;19.39;92.86
64499;SHT31;51087;55.718;21.122;2023-06-19T10:33:09;19.02;94.17
64499;SHT31;51087;55.718;21.122;2023-06-19T10:35:40;19.14;94.17
64499;SHT31;51087;55.718;21.122;2023-06-19T10:38:09;19.17;94.01
64499;SHT31;51087;55.718;21.122;2023-06-19T10:40:38;19.17;93.81
64499;SHT31;51087;55.718;21.122;2023-06-19T10:43:03;19.16;93.44
64499;SHT31;51087;55.718;21.122;2023-06-19T10:45:29;18.60;92.94
64499;SHT31;51087;55.718;21.122;2023-06-19T10:47:55;18.40;94.64
64499;SHT31;51087;55.718;21.122;2023-06-19T10:50:21;18.03;95.37
64499;SHT31;51087;55.718;21.122;2023-06-19T10:52:47;17.77;96.62
64499;SHT31;51087;55.718;21.122;2023-06-19T10:55:16;17.80;96.80
64499;SHT31;51087;55.718;21.122;2023-06-19T10:57:45;17.86;97.02
64499;SHT31;51087;55.718;21.122;2023-06-19T11:00:10;17.86;96.37
64499;SHT31;51087;55.718;21.122;2023-06-19T11:02:41;17.97;95.87
64499;SHT31;51087;55.718;21.122;2023-06-19T11:05:09;17.61;95.60
64499;SHT31;51087;55.718;21.122;2023-06-19T11:07:36;17.35;96.41
64499;SHT31;51087;55.718;21.122;2023-06-19T11:10:03;17.35;96.29
64499;SHT31;51087;55.718;21.122;2023-06-19T11:12:28;17.14;96.32
64499;SHT31;51087;55.718;21.122;2023-06-19T11:14:54;16.94;96.94
64499;SHT31;51087;55.718;21.122;2023-06-19T11:17:19;16.90;97.53
64499;SHT31;51087;55.718;21.122;2023-06-19T11:19:47;16.84;97.14
64499;SHT31;51087;55.718;21.122;2023-06-19T11:22:15;16.93;97.08
64499;SHT31;51087;55.718;21.122;2023-06-19T11:24:46;16.90;97.02
64499;SHT31;51087;55.718;21.122;2023-06-19T11:27:22;16.76;97.31
64499;SHT31;51087;55.718;21.122;2023-06-19T11:29:59;16.79;97.72
64499;SHT31;51087;55.718;21.122;2023-06-19T11:32:33;16.77;97.81
64499;SHT31;51087;55.718;21.122;2023-06-19T11:35:05;16.79;97.87
64499;SHT31;51087;55.718;21.122;2023-06-19T11:37:34;16.80;97.83
64499;SHT31;51087;55.718;21.122;2023-06-19T11:40:00;16.77;98.01
64499;SHT31;51087;55.718;21.122;2023-06-19T11:42:26;16.87;97.82
64499;SHT31;51087;55.718;21.122;2023-06-19T11:45:04;16.90;97.75
64499;SHT31;51087;55.718;21.122;2023-06-19T11:47:32;17.01;97.56
64499;SHT31;51087;55.718;21.122;2023-06-19T11:49:57;17.07;97.07
64499;SHT31;51087;55.718;21.122;2023-06-19T11:52:23;17.15;96.80
64499;SHT31;51087;55.718;21.122;2023-06-19T11:54:49;17.35;96.55
64499;SHT31;51087;55.718;21.122;2023-06-19T11:57:14;17.52;95.78
64499;SHT31;51087;55.718;21.122;2023-06-19T11:59:40;17.76;95.42
64499;SHT31;51087;55.718;21.122;2023-06-19T12:02:06;18.01;94.45
64499;SHT31;51087;55.718;21.122;2023-06-19T12:04:32;18.37;94.13
64499;SHT31;51087;55.718;21.122;2023-06-19T12:06:59;18.76;93.70
64499;SHT31;51087;55.718;21.122;2023-06-19T12:09:25;19.03;92.95
64499;SHT31;51087;55.718;21.122;2023-06-19T12:11:50;19.08;92.18
64499;SHT31;51087;55.718;21.122;2023-06-19T12:14:16;19.03;92.26
64499;SHT31;51087;55.718;21.122;2023-06-19T12:16:41;18.99;93.04
64499;SHT31;51087;55.718;21.122;2023-06-19T12:19:06;18.85;93.20
64499;SHT31;51087;55.718;21.122;2023-06-19T12:21:32;18.73;93.46
64499;SHT31;51087;55.718;21.122;2023-06-19T12:23:57;18.66;94.07
64499;SHT31;51087;55.718;21.122;2023-06-19T12:26:23;18.82;92.76
64499;SHT31;51087;55.718;21.122;2023-06-19T12:28:50;18.56;93.38
64499;SHT31;51087;55.718;21.122;2023-06-19T12:31:17;18.53;93.57
64499;SHT31;51087;55.718;21.122;2023-06-19T12:33:42;18.66;93.32
64499;SHT31;51087;55.718;21.122;2023-06-19T12:36:14;18.72;92.94
64499;SHT31;51087;55.718;21.122;2023-06-19T12:38:40;18.93;92.89
64499;SHT31;51087;55.718;21.122;2023-06-19T12:41:06;19.20;92.38
64499;SHT31;51087;55.718;21.122;2023-06-19T12:43:31;19.54;91.15
64499;SHT31;51087;55.718;21.122;2023-06-19T12:45:57;19.97;90.15
64499;SHT31;51087;55.718;21.122;2023-06-19T12:48:27;20.38;88.71
64499;SHT31;51087;55.718;21.122;2023-06-19T12:50:53;20.57;87.37
64499;SHT31;51087;55.718;21.122;2023-06-19T12:53:19;20.55;86.76
64499;SHT31;51087;55.718;21.122;2023-06-19T12:55:44;20.55;86.80
64499;SHT31;51087;55.718;21.122;2023-06-19T12:58:10;20.36;86.38
64499;SHT31;51087;55.718;21.122;2023-06-19T13:00:37;20.23;87.36
64499;SHT31;51087;55.718;21.122;2023-06-19T13:03:02;19.92;88.32
64499;SHT31;51087;55.718;21.122;2023-06-19T13:05:28;19.96;88.60
64499;SHT31;51087;55.718;21.122;2023-06-19T13:07:54;19.65;88.78
64499;SHT31;51087;55.718;21.122;2023-06-19T13:10:19;19.32;89.55
64499;SHT31;51087;55.718;21.122;2023-06-19T13:12:45;19.25;90.22
64499;SHT31;51087;55.718;21.122;2023-06-19T13:15:11;19.17;90.18
64499;SHT31;51087;55.718;21.122;2023-06-19T13:17:36;19.02;90.76
64499;SHT31;51087;55.718;21.122;2023-06-19T13:20:02;18.60;92.08
64499;SHT31;51087;55.718;21.122;2023-06-19T13:22:29;18.63;92.05
64499;SHT31;51087;55.718;21.122;2023-06-19T13:24:55;18.34;92.40
64499;SHT31;51087;55.718;21.122;2023-06-19T13:27:20;18.41;92.26
64499;SHT31;51087;55.718;21.122;2023-06-19T13:29:46;18.44;91.80
64499;SHT31;51087;55.718;21.122;2023-06-19T13:32:11;18.38;91.74
64499;SHT31;51087;55.718;21.122;2023-06-19T13:34:36;18.00;92.24
64499;SHT31;51087;55.718;21.122;2023-06-19T13:37:02;17.87;92.60
64499;SHT31;51087;55.718;21.122;2023-06-19T13:39:29;17.77;92.67
64499;SHT31;51087;55.718;21.122;2023-06-19T13:41:55;17.69;92.53
64499;SHT31;51087;55.718;21.122;2023-06-19T13:44:21;17.56;93.44
64499;SHT31;51087;55.718;21.122;2023-06-19T13:46:46;17.53;93.50
64499;SHT31;51087;55.718;21.122;2023-06-19T13:49:12;17.67;93.51
64499;SHT31;51087;55.718;21.122;2023-06-19T13:51:38;17.77;93.24
64499;SHT31;51087;55.718;21.122;2023-06-19T13:54:04;17.66;93.23
64499;SHT31;51087;55.718;21.122;2023-06-19T13:56:30;17.76;93.25
64499;SHT31;51087;55.718;21.122;2023-06-19T13:58:57;17.72;92.81
64499;SHT31;51087;55.718;21.122;2023-06-19T14:01:22;17.62;92.87
64499;SHT31;51087;55.718;21.122;2023-06-19T14:03:50;17.76;92.70
64499;SHT31;51087;55.718;21.122;2023-06-19T14:06:15;17.96;92.47
64499;SHT31;51087;55.718;21.122;2023-06-19T14:08:41;18.01;92.12
64499;SHT31;51087;55.718;21.122;2023-06-19T14:11:06;18.37;91.71
64499;SHT31;51087;55.718;21.122;2023-06-19T14:13:31;18.86;90.32
64499;SHT31;51087;55.718;21.122;2023-06-19T14:15:58;19.34;87.76
64499;SHT31;51087;55.718;21.122;2023-06-19T14:18:23;19.83;86.27
64499;SHT31;51087;55.718;21.122;2023-06-19T14:20:48;20.72;84.88
64499;SHT31;51087;55.718;21.122;2023-06-19T14:23:14;21.29;81.95
64499;SHT31;51087;55.718;21.122;2023-06-19T14:25:40;21.91;79.53
64499;SHT31;51087;55.718;21.122;2023-06-19T14:28:06;22.91;77.66
64499;SHT31;51087;55.718;21.122;2023-06-19T14:30:31;25.19;71.89
64499;SHT31;51087;55.718;21.122;2023-06-19T14:32:57;27.69;64.04
64499;SHT31;51087;55.718;21.122;2023-06-19T14:35:22;29.65;58.20
64499;SHT31;51087;55.718;21.122;2023-06-19T14:37:47;31.42;53.40
64499;SHT31;51087;55.718;21.122;2023-06-19T14:40:13;31.31;52.34
64499;SHT31;51087;55.718;21.122;2023-06-19T14:42:38;32.58;50.16
64499;SHT31;51087;55.718;21.122;2023-06-19T14:45:04;31.58;51.15
64499;SHT31;51087;55.718;21.122;2023-06-19T14:47:29;33.69;48.93
64499;SHT31;51087;55.718;21.122;2023-06-19T14:49:55;33.45;48.46
64499;SHT31;51087;55.718;21.122;2023-06-19T14:52:20;33.00;49.16
64499;SHT31;51087;55.718;21.122;2023-06-19T14:54:46;31.19;51.68
64499;SHT31;51087;55.718;21.122;2023-06-19T14:57:12;29.46;53.85
64499;SHT31;51087;55.718;21.122;2023-06-19T14:59:37;29.60;54.41
64499;SHT31;51087;55.718;21.122;2023-06-19T15:02:03;30.66;52.15
64499;SHT31;51087;55.718;21.122;2023-06-19T15:04:28;31.39;50.27
64499;SHT31;51087;55.718;21.122;2023-06-19T15:06:54;31.05;51.20
64499;SHT31;51087;55.718;21.122;2023-06-19T15:09:19;30.59;52.05
64499;SHT31;51087;55.718;21.122;2023-06-19T15:11:45;31.26;50.77
64499;SHT31;51087;55.718;21.122;2023-06-19T15:14:10;31.50;50.45
64499;SHT31;51087;55.718;21.122;2023-06-19T15:16:36;32.36;49.47
64499;SHT31;51087;55.718;21.122;2023-06-19T15:19:01;33.79;46.74